Annamarie — CQFZ — position and weather

sailwx.info

Track history (hours):
 
Tides and Currents Weather Stations Pressure Air Temp Water Temp Dewpoint Dewpoint Depression Visibility Wind Speed Wind Dir Waves Ship Positions

Annamarie

Last reported at 2018-Feb-20 14:16 UTC. Time now 2018-Feb-23 15:56 UTC.
Position N 28°58' W 013°32'.

Length 138 m; draft 6.7 m.

Type: Cargo ship. MMSI: 255805627.

Date/timePositionNaut miles runAvg speedWind from/ knotsBaromVisibWave heightAir tempDewpointWater temp
2018-Feb-20 14:16N 28°58' W 013°32'0 0.7
2018-Feb-20 13:57N 28°58' W 013°32'511.2
2018-Feb-20 13:28N 28°53' W 013°34'55 4.2
2018-Feb-20 00:23N 28°44' W 014°37'512.6
2018-Feb-19 23:58N 28°44' W 014°43'611.7
2018-Feb-19 23:27N 28°43' W 014°49'511.7
2018-Feb-19 23:00N 28°43' W 014°56'611.6
2018-Feb-19 22:30N 28°42' W 015°02'611.7
2018-Feb-19 22:00N 28°42' W 015°09'612.2
2018-Feb-19 21:30N 28°41' W 015°15'612.0
2018-Feb-19 21:00N 28°40' W 015°22'611.9
2018-Feb-19 20:30N 28°40' W 015°29'611.6
2018-Feb-19 20:00N 28°39' W 015°36'611.7
2018-Feb-19 19:30N 28°39' W 015°42'611.6
2018-Feb-19 19:00N 28°38' W 015°49'611.8
2018-Feb-19 18:30N 28°35' W 015°55'611.7
2018-Feb-19 17:59N 28°32' W 016°01'12 1.4
2018-Feb-19 09:23N 28°29' W 016°14'513.3
2018-Feb-19 09:01N 28°27' W 016°09'816.9
2018-Feb-19 08:30N 28°24' W 015°60'816.8
2018-Feb-19 08:00N 28°21' W 015°51'816.5
2018-Feb-19 07:30N 28°18' W 015°42'816.7
2018-Feb-19 07:00N 28°15' W 015°33'816.6
2018-Feb-19 06:30N 28°12' W 015°24'510.0
2018-Feb-19 06:01N 28°07' W 015°25'1 0.8
2018-Feb-19 05:20N 28°08' W 015°25'0 0.0
2018-Feb-19 04:50N 28°08' W 015°25'0 0.0
2018-Feb-19 04:20N 28°08' W 015°25'0 0.0
2018-Feb-19 03:53N 28°08' W 015°25'0 0.0
2018-Feb-19 03:23N 28°08' W 015°25'0 0.0
2018-Feb-19 02:53N 28°08' W 015°25'0 0.0
2018-Feb-19 02:20N 28°08' W 015°25'0 0.0
2018-Feb-19 01:53N 28°08' W 015°25'0 0.0
2018-Feb-19 01:20N 28°08' W 015°25'0 0.0
2018-Feb-19 00:56N 28°08' W 015°25'0 0.0
2018-Feb-19 00:26N 28°08' W 015°25'0 0.0
2018-Feb-18 23:56N 28°08' W 015°25'0 0.0
2018-Feb-18 23:26N 28°08' W 015°25'0 0.0
2018-Feb-18 22:56N 28°08' W 015°25'0 0.0
2018-Feb-18 22:26N 28°08' W 015°25'0 0.0
2018-Feb-18 21:59N 28°08' W 015°25'0 0.0
2018-Feb-18 21:29N 28°08' W 015°25'0 0.0
2018-Feb-18 20:59N 28°08' W 015°25'0 0.0
2018-Feb-18 20:29N 28°08' W 015°25'0 0.0
2018-Feb-18 19:59N 28°08' W 015°25'0 0.0
2018-Feb-18 19:29N 28°08' W 015°25'0 0.0
2018-Feb-18 18:59N 28°08' W 015°25'0 0.0
2018-Feb-18 18:29N 28°08' W 015°25'1 1.1
2018-Feb-18 18:00N 28°07' W 015°25'612.2
2018-Feb-18 17:30N 28°11' W 015°20'816.5
2018-Feb-18 17:00N 28°18' W 015°14'816.7
2018-Feb-18 16:30N 28°24' W 015°07'816.6
2018-Feb-18 16:00N 28°30' W 015°01'  
2018-Feb-13 18:45N 29°13' W 013°15'414.6
2018-Feb-13 18:30N 29°10' W 013°17'714.9
2018-Feb-13 18:00N 29°04' W 013°22'814.9
2018-Feb-13 17:30N 28°58' W 013°28'3 5.5
2018-Feb-13 16:53N 28°58' W 013°32'0 0.0
2018-Feb-13 15:47N 28°58' W 013°32'0 0.0
2018-Feb-13 15:11N 28°58' W 013°32'0 0.0
2018-Feb-13 14:47N 28°58' W 013°32'0 0.3
2018-Feb-13 14:28N 28°58' W 013°32'611.9
2018-Feb-13 13:59N 28°53' W 013°34'816.6
2018-Feb-13 13:29N 28°46' W 013°39'15 1.8
2018-Feb-13 04:55N 28°33' W 013°48'511.1
2018-Feb-13 04:30N 28°37' W 013°47'5 9.6
2018-Feb-13 03:59N 28°42' W 013°47'4210.4
2018-Feb-12 23:56N 28°44' W 014°35'611.5
2018-Feb-12 23:27N 28°44' W 014°41'511.5
2018-Feb-12 23:00N 28°43' W 014°47'611.5
2018-Feb-12 22:30N 28°43' W 014°53'611.6
2018-Feb-12 22:01N 28°42' W 014°60'611.7
2018-Feb-12 21:30N 28°42' W 015°07'611.8
2018-Feb-12 21:01N 28°41' W 015°13'611.8
2018-Feb-12 20:31N 28°41' W 015°20'611.8
2018-Feb-12 20:00N 28°40' W 015°27'611.6
2018-Feb-12 19:30N 28°39' W 015°33'612.3
2018-Feb-12 19:00N 28°39' W 015°40'713.4
2018-Feb-12 18:30N 28°38' W 015°48'713.3
2018-Feb-12 18:01N 28°35' W 015°55'612.1
2018-Feb-12 17:30N 28°33' W 016°01'611.5
2018-Feb-12 17:00N 28°30' W 016°07'611.6
2018-Feb-12 16:31N 28°29' W 016°13'1 1.5
2018-Feb-12 16:00N 28°29' W 016°14'0 0.0
2018-Feb-12 15:15N 28°29' W 016°14'0 0.0
2018-Feb-12 15:00N 28°29' W 016°14'0 0.0
2018-Feb-12 14:30N 28°29' W 016°14'0 0.0
2018-Feb-12 14:00N 28°29' W 016°14'0 0.0
2018-Feb-12 13:30N 28°29' W 016°14'0 0.0
2018-Feb-12 13:00N 28°29' W 016°14'0 0.0
2018-Feb-12 12:30N 28°29' W 016°14'0 0.0
2018-Feb-12 12:00N 28°29' W 016°14'0 0.0
2018-Feb-12 11:30N 28°29' W 016°14'0 0.0
2018-Feb-12 11:00N 28°29' W 016°14'0 0.0
2018-Feb-12 10:30N 28°29' W 016°14'0 0.0
2018-Feb-12 10:00N 28°29' W 016°14'1 1.5
2018-Feb-12 09:30N 28°29' W 016°13'3 6.8
2018-Feb-12 09:01N 28°27' W 016°10'1 1.1
2018-Feb-12 08:31N 28°27' W 016°10'816.3
2018-Feb-12 08:01N 28°24' W 016°01'816.7
2018-Feb-12 07:31N 28°21' W 015°52'816.7
2018-Feb-12 07:01N 28°18' W 015°43'816.5
2018-Feb-12 06:31N 28°15' W 015°34'816.4
2018-Feb-12 06:01N 28°13' W 015°26'611.1
2018-Feb-12 05:30N 28°07' W 015°24'1 1.9
2018-Feb-12 04:57N 28°08' W 015°25'0 0.0
2018-Feb-12 04:30N 28°08' W 015°25'0 0.0
2018-Feb-12 04:00N 28°08' W 015°25'0 0.0
2018-Feb-12 03:30N 28°08' W 015°25'0 0.0
2018-Feb-12 03:00N 28°08' W 015°25'0 0.0
2018-Feb-12 02:30N 28°08' W 015°25'0 0.0
2018-Feb-12 02:00N 28°08' W 015°25'0 0.0
2018-Feb-12 01:30N 28°08' W 015°25'0 0.0
2018-Feb-12 01:00N 28°08' W 015°25'0 0.0
2018-Feb-12 00:30N 28°08' W 015°25'0 0.0
2018-Feb-12 00:00N 28°08' W 015°25'0 0.0
2018-Feb-11 23:30N 28°08' W 015°25'0 0.0
2018-Feb-11 23:00N 28°08' W 015°25'0 0.0
2018-Feb-11 22:30N 28°08' W 015°25'0 0.0
2018-Feb-11 22:00N 28°08' W 015°25'0 0.0
2018-Feb-11 21:21N 28°08' W 015°25'0 0.0
2018-Feb-11 20:51N 28°08' W 015°25'0 0.0
2018-Feb-11 20:24N 28°08' W 015°25'0 0.0
2018-Feb-11 19:54N 28°08' W 015°25'0 0.0
2018-Feb-11 19:24N 28°08' W 015°25'0 0.0
2018-Feb-11 18:54N 28°08' W 015°25'0 0.0
2018-Feb-11 18:30N 28°08' W 015°25'2 3.3
2018-Feb-11 18:00N 28°07' W 015°23'611.2
2018-Feb-11 17:30N 28°12' W 015°20'816.6
2018-Feb-11 17:01N 28°18' W 015°13'816.7
2018-Feb-11 16:31N 28°24' W 015°07'816.8
2018-Feb-11 16:01N 28°31' W 015°01'22016.7
2018-Feb-11 02:48N 31°22' W 012°22'516.8
2018-Feb-11 02:30N 31°26' W 012°18'816.8
2018-Feb-11 02:01N 31°33' W 012°12'816.6
2018-Feb-11 01:31N 31°39' W 012°06'816.5
2018-Feb-11 01:00N 31°45' W 011°60'816.5
2018-Feb-11 00:31N 31°52' W 011°54'816.6
2018-Feb-11 00:01N 31°58' W 011°48'816.6
2018-Feb-10 23:30N 32°05' W 011°42'816.0
2018-Feb-10 23:01N 32°11' W 011°36'816.4
2018-Feb-10 22:30N 32°18' W 011°30'816.6
2018-Feb-10 22:00N 32°24' W 011°24'816.5
2018-Feb-10 21:31N 32°31' W 011°18'  
Track history (hours):
 
Tides and Currents Weather Stations Pressure Air Temp Water Temp Dewpoint Dewpoint Depression Visibility Wind Speed Wind Dir Waves Ship Positions

Annamarie

Last reported at 2018-Feb-20 14:16 UTC. Time now 2018-Feb-23 15:56 UTC.
Position N 28°58' W 013°32'.

Length 138 m; draft 6.7 m.

Type: Cargo ship. MMSI: 255805627.

Date/timePositionNaut miles runAvg speedWind from/ knotsBaromVisibWave heightAir tempDewpointWater temp
2018-Feb-20 14:16N 28°58' W 013°32'0 0.7
2018-Feb-20 13:57N 28°58' W 013°32'511.2
2018-Feb-20 13:28N 28°53' W 013°34'55 4.2
2018-Feb-20 00:23N 28°44' W 014°37'512.6
2018-Feb-19 23:58N 28°44' W 014°43'611.7
2018-Feb-19 23:27N 28°43' W 014°49'511.7
2018-Feb-19 23:00N 28°43' W 014°56'611.6
2018-Feb-19 22:30N 28°42' W 015°02'611.7
2018-Feb-19 22:00N 28°42' W 015°09'612.2
2018-Feb-19 21:30N 28°41' W 015°15'612.0
2018-Feb-19 21:00N 28°40' W 015°22'611.9
2018-Feb-19 20:30N 28°40' W 015°29'611.6
2018-Feb-19 20:00N 28°39' W 015°36'611.7
2018-Feb-19 19:30N 28°39' W 015°42'611.6
2018-Feb-19 19:00N 28°38' W 015°49'611.8
2018-Feb-19 18:30N 28°35' W 015°55'611.7
2018-Feb-19 17:59N 28°32' W 016°01'12 1.4
2018-Feb-19 09:23N 28°29' W 016°14'513.3
2018-Feb-19 09:01N 28°27' W 016°09'816.9
2018-Feb-19 08:30N 28°24' W 015°60'816.8
2018-Feb-19 08:00N 28°21' W 015°51'816.5
2018-Feb-19 07:30N 28°18' W 015°42'816.7
2018-Feb-19 07:00N 28°15' W 015°33'816.6
2018-Feb-19 06:30N 28°12' W 015°24'510.0
2018-Feb-19 06:01N 28°07' W 015°25'1 0.8
2018-Feb-19 05:20N 28°08' W 015°25'0 0.0
2018-Feb-19 04:50N 28°08' W 015°25'0 0.0
2018-Feb-19 04:20N 28°08' W 015°25'0 0.0
2018-Feb-19 03:53N 28°08' W 015°25'0 0.0
2018-Feb-19 03:23N 28°08' W 015°25'0 0.0
2018-Feb-19 02:53N 28°08' W 015°25'0 0.0
2018-Feb-19 02:20N 28°08' W 015°25'0 0.0
2018-Feb-19 01:53N 28°08' W 015°25'0 0.0
2018-Feb-19 01:20N 28°08' W 015°25'0 0.0
2018-Feb-19 00:56N 28°08' W 015°25'0 0.0
2018-Feb-19 00:26N 28°08' W 015°25'0 0.0
2018-Feb-18 23:56N 28°08' W 015°25'0 0.0
2018-Feb-18 23:26N 28°08' W 015°25'0 0.0
2018-Feb-18 22:56N 28°08' W 015°25'0 0.0
2018-Feb-18 22:26N 28°08' W 015°25'0 0.0
2018-Feb-18 21:59N 28°08' W 015°25'0 0.0
2018-Feb-18 21:29N 28°08' W 015°25'0 0.0
2018-Feb-18 20:59N 28°08' W 015°25'0 0.0
2018-Feb-18 20:29N 28°08' W 015°25'0 0.0
2018-Feb-18 19:59N 28°08' W 015°25'0 0.0
2018-Feb-18 19:29N 28°08' W 015°25'0 0.0
2018-Feb-18 18:59N 28°08' W 015°25'0 0.0
2018-Feb-18 18:29N 28°08' W 015°25'1 1.1
2018-Feb-18 18:00N 28°07' W 015°25'612.2
2018-Feb-18 17:30N 28°11' W 015°20'816.5
2018-Feb-18 17:00N 28°18' W 015°14'816.7
2018-Feb-18 16:30N 28°24' W 015°07'816.6
2018-Feb-18 16:00N 28°30' W 015°01'  
2018-Feb-13 18:45N 29°13' W 013°15'414.6
2018-Feb-13 18:30N 29°10' W 013°17'714.9
2018-Feb-13 18:00N 29°04' W 013°22'814.9
2018-Feb-13 17:30N 28°58' W 013°28'3 5.5
2018-Feb-13 16:53N 28°58' W 013°32'0 0.0
2018-Feb-13 15:47N 28°58' W 013°32'0 0.0
2018-Feb-13 15:11N 28°58' W 013°32'0 0.0
2018-Feb-13 14:47N 28°58' W 013°32'0 0.3
2018-Feb-13 14:28N 28°58' W 013°32'611.9
2018-Feb-13 13:59N 28°53' W 013°34'816.6
2018-Feb-13 13:29N 28°46' W 013°39'15 1.8
2018-Feb-13 04:55N 28°33' W 013°48'511.1
2018-Feb-13 04:30N 28°37' W 013°47'5 9.6
2018-Feb-13 03:59N 28°42' W 013°47'4210.4
2018-Feb-12 23:56N 28°44' W 014°35'611.5
2018-Feb-12 23:27N 28°44' W 014°41'511.5
2018-Feb-12 23:00N 28°43' W 014°47'611.5
2018-Feb-12 22:30N 28°43' W 014°53'611.6
2018-Feb-12 22:01N 28°42' W 014°60'611.7
2018-Feb-12 21:30N 28°42' W 015°07'611.8
2018-Feb-12 21:01N 28°41' W 015°13'611.8
2018-Feb-12 20:31N 28°41' W 015°20'611.8
2018-Feb-12 20:00N 28°40' W 015°27'611.6
2018-Feb-12 19:30N 28°39' W 015°33'612.3
2018-Feb-12 19:00N 28°39' W 015°40'713.4
2018-Feb-12 18:30N 28°38' W 015°48'713.3
2018-Feb-12 18:01N 28°35' W 015°55'612.1
2018-Feb-12 17:30N 28°33' W 016°01'611.5
2018-Feb-12 17:00N 28°30' W 016°07'611.6
2018-Feb-12 16:31N 28°29' W 016°13'1 1.5
2018-Feb-12 16:00N 28°29' W 016°14'0 0.0
2018-Feb-12 15:15N 28°29' W 016°14'0 0.0
2018-Feb-12 15:00N 28°29' W 016°14'0 0.0
2018-Feb-12 14:30N 28°29' W 016°14'0 0.0
2018-Feb-12 14:00N 28°29' W 016°14'0 0.0
2018-Feb-12 13:30N 28°29' W 016°14'0 0.0
2018-Feb-12 13:00N 28°29' W 016°14'0 0.0
2018-Feb-12 12:30N 28°29' W 016°14'0 0.0
2018-Feb-12 12:00N 28°29' W 016°14'0 0.0
2018-Feb-12 11:30N 28°29' W 016°14'0 0.0
2018-Feb-12 11:00N 28°29' W 016°14'0 0.0
2018-Feb-12 10:30N 28°29' W 016°14'0 0.0
2018-Feb-12 10:00N 28°29' W 016°14'1 1.5
2018-Feb-12 09:30N 28°29' W 016°13'3 6.8
2018-Feb-12 09:01N 28°27' W 016°10'1 1.1
2018-Feb-12 08:31N 28°27' W 016°10'816.3
2018-Feb-12 08:01N 28°24' W 016°01'816.7
2018-Feb-12 07:31N 28°21' W 015°52'816.7
2018-Feb-12 07:01N 28°18' W 015°43'816.5
2018-Feb-12 06:31N 28°15' W 015°34'816.4
2018-Feb-12 06:01N 28°13' W 015°26'611.1
2018-Feb-12 05:30N 28°07' W 015°24'1 1.9
2018-Feb-12 04:57N 28°08' W 015°25'0 0.0
2018-Feb-12 04:30N 28°08' W 015°25'0 0.0
2018-Feb-12 04:00N 28°08' W 015°25'0 0.0
2018-Feb-12 03:30N 28°08' W 015°25'0 0.0
2018-Feb-12 03:00N 28°08' W 015°25'0 0.0
2018-Feb-12 02:30N 28°08' W 015°25'0 0.0
2018-Feb-12 02:00N 28°08' W 015°25'0 0.0
2018-Feb-12 01:30N 28°08' W 015°25'0 0.0
2018-Feb-12 01:00N 28°08' W 015°25'0 0.0
2018-Feb-12 00:30N 28°08' W 015°25'0 0.0
2018-Feb-12 00:00N 28°08' W 015°25'0 0.0
2018-Feb-11 23:30N 28°08' W 015°25'0 0.0
2018-Feb-11 23:00N 28°08' W 015°25'0 0.0
2018-Feb-11 22:30N 28°08' W 015°25'0 0.0
2018-Feb-11 22:00N 28°08' W 015°25'0 0.0
2018-Feb-11 21:21N 28°08' W 015°25'0 0.0
2018-Feb-11 20:51N 28°08' W 015°25'0 0.0
2018-Feb-11 20:24N 28°08' W 015°25'0 0.0
2018-Feb-11 19:54N 28°08' W 015°25'0 0.0
2018-Feb-11 19:24N 28°08' W 015°25'0 0.0
2018-Feb-11 18:54N 28°08' W 015°25'0 0.0
2018-Feb-11 18:30N 28°08' W 015°25'2 3.3
2018-Feb-11 18:00N 28°07' W 015°23'611.2
2018-Feb-11 17:30N 28°12' W 015°20'816.6
2018-Feb-11 17:01N 28°18' W 015°13'816.7
2018-Feb-11 16:31N 28°24' W 015°07'816.8
2018-Feb-11 16:01N 28°31' W 015°01'22016.7
2018-Feb-11 02:48N 31°22' W 012°22'516.8
2018-Feb-11 02:30N 31°26' W 012°18'816.8
2018-Feb-11 02:01N 31°33' W 012°12'816.6
2018-Feb-11 01:31N 31°39' W 012°06'816.5
2018-Feb-11 01:00N 31°45' W 011°60'816.5
2018-Feb-11 00:31N 31°52' W 011°54'816.6
2018-Feb-11 00:01N 31°58' W 011°48'816.6
2018-Feb-10 23:30N 32°05' W 011°42'816.0
2018-Feb-10 23:01N 32°11' W 011°36'816.4
2018-Feb-10 22:30N 32°18' W 011°30'816.6
2018-Feb-10 22:00N 32°24' W 011°24'816.5
2018-Feb-10 21:31N 32°31' W 011°18'  

Dump ship's entire track history